.
WxDataArchive / Data Records for 2016-02-18
2016-02-17 February 2016 2016-02-19

Data Records for Thursday, 18 February 2016

Time	Temp	Chill	HIndex	Humid	Dewpt	 Wind 	HiWind	WindDir	Rain 	Barom
-----	----	-----	------	-----	-----	------	------	-------	-----	-----
00:00	22.5	22.5	22.5	73	15.2	0	0	---	0.00	30.368 
00:05	22.2	22.2	22.2	74	15.2	0	0	---	0.00	30.368 
00:10	21.9	21.9	21.9	74	14.9	0	0	---	0.00	30.368 
00:15	21.6	21.6	21.6	75	14.9	0	0	---	0.00	30.373 
00:20	21.4	21.4	21.4	76	15.0	0	0	---	0.00	30.373 
00:25	21.1	21.1	21.1	76	14.7	0	0	---	0.00	30.373 
00:30	21.1	21.1	21.1	77	15.0	0	0	---	0.00	30.381 
00:35	21.3	21.3	21.3	77	15.2	0	0	---	0.00	30.381 
00:40	21.3	21.3	21.3	78	15.5	0	0	---	0.00	30.381 
00:45	21.3	21.3	21.3	78	15.5	0	0	---	0.00	30.380 
00:50	21.4	21.4	21.4	79	15.9	0	0	---	0.00	30.380 
00:55	21.4	21.4	21.4	79	15.9	0	0	---	0.00	30.380 
01:00	21.6	21.6	21.6	79	16.1	0	0	---	0.00	30.387 
01:05	21.6	21.6	21.6	79	16.1	0	0	---	0.00	30.387 
01:10	21.8	21.8	21.8	79	16.3	0	0	---	0.00	30.387 
01:15	21.9	21.9	21.9	78	16.1	0	0	---	0.00	30.388 
01:20	21.9	21.9	21.9	78	16.1	0	0	---	0.00	30.388 
01:25	22.1	22.1	22.1	78	16.3	0	0	---	0.00	30.388 
01:30	22.4	22.4	22.4	78	16.6	0	0	---	0.00	30.393 
01:35	22.7	22.7	22.7	77	16.6	0	0	---	0.00	30.393 
01:40	22.9	22.9	22.9	76	16.5	0	0	---	0.00	30.393 
01:45	23.0	23.0	23.0	76	16.6	0	0	---	0.00	30.391 
01:50	23.0	23.0	23.0	75	16.3	0	0	---	0.00	30.391 
01:55	23.2	23.2	23.2	74	16.2	0	0	---	0.00	30.391 
02:00	23.2	23.2	23.2	74	16.2	0	0	---	0.00	30.390 
02:05	23.2	23.2	23.2	74	16.2	0	0	---	0.00	30.390 
02:10	23.0	23.0	23.0	74	16.0	0	0	---	0.00	30.390 
02:15	22.9	22.9	22.9	73	15.6	0	0	---	0.00	30.391 
02:20	22.7	22.7	22.7	73	15.4	0	0	---	0.00	30.391 
02:25	22.5	22.5	22.5	73	15.2	0	0	---	0.00	30.391 
02:30	22.4	22.4	22.4	73	15.1	0	0	---	0.00	30.395 
02:35	22.1	22.1	22.1	73	14.8	0	0	---	0.00	30.395 
02:40	22.1	22.1	22.1	74	15.1	0	0	---	0.00	30.395 
02:45	21.9	21.9	21.9	74	14.9	0	0	---	0.00	30.400 
02:50	21.9	21.9	21.9	74	14.9	0	0	---	0.00	30.400 
02:55	21.8	21.8	21.8	74	14.8	0	0	---	0.00	30.400 
03:00	21.8	21.8	21.8	74	14.8	0	0	---	0.00	30.404 
03:05	21.6	21.6	21.6	74	14.6	0	0	---	0.00	30.404 
03:10	21.4	21.4	21.4	74	14.4	0	0	---	0.00	30.404 
03:15	21.4	21.4	21.4	75	14.7	0	0	---	0.00	30.402 
03:20	21.3	21.3	21.3	75	14.6	0	0	---	0.00	30.402 
03:25	21.3	21.3	21.3	75	14.6	0	0	---	0.00	30.402 
03:30	21.1	21.1	21.1	75	14.4	0	0	---	0.00	30.402 
03:35	21.0	21.0	21.0	75	14.3	0	0	---	0.00	30.402 
03:40	21.0	21.0	21.0	75	14.3	0	0	---	0.00	30.402 
03:45	20.8	20.8	20.8	76	14.5	0	0	---	0.00	30.400 
03:50	20.8	20.8	20.8	77	14.7	0	0	---	0.00	30.400 
03:55	20.6	20.6	20.6	77	14.6	0	0	---	0.00	30.400 
04:00	20.6	20.6	20.6	77	14.6	0	0	---	0.00	30.400 
04:05	20.5	20.5	20.5	77	14.5	0	0	---	0.00	30.400 
04:10	20.5	20.5	20.5	78	14.8	0	0	---	0.00	30.400 
04:15	20.5	20.5	20.5	78	14.8	0	0	---	0.00	30.400 
04:20	20.5	20.5	20.5	78	14.8	0	0	---	0.00	30.400 
04:25	20.5	20.5	20.5	78	14.8	0	0	---	0.00	30.400 
04:30	20.5	20.5	20.5	79	15.0	0	0	---	0.00	30.402 
04:35	20.5	20.5	20.5	79	15.0	0	0	---	0.00	30.402 
04:40	20.5	20.5	20.5	79	15.0	0	0	---	0.00	30.402 
04:45	20.3	20.3	20.3	79	14.8	0	0	---	0.00	30.408 
04:50	20.2	20.2	20.2	79	14.8	0	0	---	0.00	30.408 
04:55	20.0	20.0	20.0	79	14.6	0	0	---	0.00	30.408 
05:00	19.9	19.9	19.9	79	14.5	0	0	---	0.00	30.411 
05:05	19.7	19.7	19.7	79	14.3	0	0	---	0.00	30.411 
05:10	19.4	19.4	19.4	79	14.0	0	0	---	0.00	30.411 
05:15	19.1	19.1	19.1	80	14.0	0	0	---	0.00	30.419 
05:20	18.9	18.9	18.9	80	13.8	0	0	---	0.00	30.419 
05:25	18.8	18.8	18.8	80	13.7	0	0	---	0.00	30.419 
05:30	18.6	18.6	18.6	81	13.8	0	0	---	0.00	30.420 
05:35	18.4	18.4	18.4	81	13.6	0	0	---	0.00	30.420 
05:40	18.3	18.3	18.3	81	13.5	0	0	---	0.00	30.420 
05:45	18.3	18.3	18.3	81	13.5	0	0	---	0.00	30.430 
05:50	18.1	18.1	18.1	81	13.3	0	0	---	0.00	30.430 
05:55	18.0	18.0	18.0	81	13.2	0	0	---	0.00	30.430 
06:00	18.0	18.0	18.0	82	13.5	0	0	---	0.00	30.438 
06:05	17.8	17.8	17.8	82	13.3	0	0	---	0.00	30.438 
06:10	17.7	17.7	17.7	82	13.2	0	0	---	0.00	30.438 
06:15	17.5	17.5	17.5	82	13.0	0	0	---	0.00	30.448 
06:20	17.3	17.3	17.3	82	12.8	0	0	---	0.00	30.448 
06:25	17.2	17.2	17.2	82	12.7	0	0	---	0.00	30.448 
06:30	17.0	17.0	17.0	82	12.5	0	0	---	0.00	30.453 
06:35	17.0	17.0	17.0	83	12.7	0	0	---	0.00	30.453 
06:40	16.9	16.9	16.9	83	12.6	0	0	---	0.00	30.453 
06:45	16.9	16.9	16.9	83	12.6	0	0	---	0.00	30.454 
06:50	16.7	16.7	16.7	83	12.5	0	0	---	0.00	30.454 
06:55	16.5	16.5	16.5	83	12.3	0	0	---	0.00	30.454 
07:00	16.5	16.5	16.5	83	12.3	0	0	---	0.00	30.457 
07:05	16.4	16.4	16.4	83	12.2	0	0	---	0.00	30.457 
07:10	16.4	16.4	16.4	83	12.2	0	0	---	0.00	30.457 
07:15	16.4	16.4	16.4	84	12.4	0	0	---	0.00	30.467 
07:20	16.4	16.4	16.4	84	12.4	0	0	---	0.00	30.467 
07:25	16.4	16.4	16.4	84	12.4	0	0	---	0.00	30.467 
07:30	16.4	16.4	16.4	85	12.7	0	0	---	0.00	30.469 
07:35	16.5	16.5	16.5	85	12.8	0	0	---	0.00	30.469 
07:40	16.7	16.7	16.7	85	13.0	0	0	---	0.00	30.469 
07:45	16.9	16.9	16.9	85	13.2	0	0	---	0.00	30.476 
07:50	17.0	17.0	17.0	85	13.3	0	0	---	0.00	30.476 
07:55	17.2	17.2	17.2	85	13.5	0	0	---	0.00	30.476 
08:00	17.3	17.3	17.3	85	13.6	0	0	---	0.00	30.480 
08:05	17.7	17.7	17.7	86	14.2	0	0	---	0.00	30.480 
08:10	18.1	18.1	18.1	87	14.9	0	1	315	0.00	30.480 
08:15	19.1	19.1	19.1	88	16.1	0	1	315	0.00	30.483 
08:20	20.2	20.2	20.2	87	17.0	0	1	315	0.00	30.483 
08:25	21.1	21.1	21.1	86	17.6	0	1	315	0.00	30.483 
08:30	21.8	21.8	21.8	84	17.7	0	2	315	0.00	30.481 
08:35	22.1	22.1	22.1	83	17.7	0	2	315	0.00	30.481 
08:40	22.4	22.4	22.4	82	17.8	0	2	315	0.00	30.481 
08:45	22.5	22.5	22.5	82	17.9	0	2	315	0.00	30.488 
08:50	22.7	22.7	22.7	82	18.0	0	1	315	0.00	30.488 
08:55	22.9	22.9	22.9	81	18.0	0	1	315	0.00	30.488 
09:00	23.2	23.2	23.2	81	18.3	0	1	315	0.00	30.490 
09:05	23.3	23.3	23.3	81	18.3	1	2	315	0.00	30.490 
09:10	23.6	23.6	23.6	81	18.6	0	2	315	0.00	30.490 
09:15	23.9	23.9	23.9	81	18.9	1	3	315	0.00	30.489 
09:20	24.1	24.1	24.1	81	19.1	0	2	338	0.00	30.489 
09:25	24.4	24.4	24.4	81	19.4	1	3	338	0.00	30.489 
09:30	24.7	24.7	24.7	81	19.7	1	2	338	0.00	30.493 
09:35	25.0	25.0	25.0	80	19.7	0	2	338	0.00	30.493 
09:40	25.4	25.4	25.4	80	20.1	0	1	338	0.00	30.493 
09:45	26.1	26.1	26.1	80	20.8	0	2	338	0.00	30.497 
09:50	26.6	26.6	26.6	78	20.7	1	3	0	0.00	30.497 
09:55	27.0	27.0	27.0	78	21.1	1	4	0	0.00	30.497 
10:00	27.6	27.6	27.6	77	21.4	1	3	68	0.00	30.494 
10:05	28.2	28.2	28.2	75	21.3	1	3	68	0.00	30.494 
10:10	28.7	28.7	28.7	74	21.5	1	3	68	0.00	30.494 
10:15	29.1	29.1	29.1	75	22.2	1	3	68	0.00	30.493 
10:20	29.5	29.5	29.5	74	22.3	1	4	68	0.00	30.493 
10:25	29.8	29.8	29.8	74	22.5	1	4	68	0.00	30.493 
10:30	30.3	30.3	30.3	73	22.7	1	3	68	0.00	30.499 
10:35	31.0	31.0	31.0	73	23.4	1	4	68	0.00	30.499 
10:40	31.3	31.3	31.3	71	23.0	2	4	68	0.00	30.499 
10:45	31.8	31.8	31.8	71	23.5	1	3	68	0.00	30.503 
10:50	32.2	32.2	32.2	70	23.5	2	5	68	0.00	30.503 
10:55	32.8	32.8	32.8	69	23.8	0	3	90	0.00	30.503 
11:00	33.1	33.1	33.1	69	24.1	2	5	90	0.00	30.491 
11:05	33.2	33.2	33.2	69	24.2	2	5	90	0.00	30.491 
11:10	33.5	33.5	33.5	68	24.1	2	4	90	0.00	30.491 
11:15	33.7	33.7	33.7	67	23.9	1	3	90	0.00	30.490 
11:20	33.8	33.8	33.8	64	22.9	2	3	112	0.00	30.490 
11:25	34.3	34.3	34.3	64	23.4	1	4	135	0.00	30.490 
11:30	34.6	34.6	34.6	63	23.3	1	6	112	0.00	30.489 
11:35	34.9	34.9	34.9	64	24.0	2	5	90	0.00	30.489 
11:40	35.2	35.2	35.2	64	24.3	2	4	90	0.00	30.489 
11:45	35.3	35.3	35.3	63	24.0	1	5	112	0.00	30.487 
11:50	35.5	35.5	35.5	62	23.8	2	5	112	0.00	30.487 
11:55	35.3	35.3	35.3	62	23.6	2	5	112	0.00	30.487 
12:00	35.3	35.3	35.3	62	23.6	2	4	112	0.00	30.487 
12:05	35.3	35.3	35.3	63	24.0	2	7	90	0.00	30.487 
12:10	35.3	35.3	35.3	63	24.0	1	4	90	0.00	30.487 
12:15	35.5	35.5	35.5	63	24.2	2	6	90	0.00	30.487 
12:20	35.6	35.6	35.6	62	23.9	1	7	112	0.00	30.487 
12:25	35.8	35.8	35.8	63	24.5	2	6	90	0.00	30.487 
12:30	36.0	36.0	36.0	62	24.3	1	4	90	0.00	30.473 
12:35	36.3	36.3	36.3	62	24.5	2	4	90	0.00	30.473 
12:40	36.3	36.3	36.3	61	24.2	2	6	90	0.00	30.473 
12:45	36.5	36.5	36.5	62	24.7	2	5	112	0.00	30.458 
12:50	36.5	36.5	36.5	62	24.7	2	7	112	0.00	30.458 
12:55	36.9	36.9	36.9	62	25.1	2	4	112	0.00	30.458 
13:00	37.2	37.2	37.2	61	25.0	3	7	90	0.00	30.454 
13:05	37.3	37.3	37.3	61	25.1	1	5	90	0.00	30.454 
13:10	37.2	37.2	37.2	61	25.0	3	7	112	0.00	30.454 
13:15	37.3	37.3	37.3	62	25.5	1	4	112	0.00	30.445 
13:20	37.6	37.6	37.6	62	25.8	1	4	112	0.00	30.445 
13:25	37.8	37.8	37.8	61	25.6	2	6	90	0.00	30.445 
13:30	38.0	38.0	38.0	61	25.8	2	6	112	0.00	30.443 
13:35	38.2	38.2	38.2	61	26.0	2	7	90	0.00	30.443 
13:40	38.3	38.3	38.3	60	25.6	3	7	112	0.00	30.443 
13:45	38.5	38.5	38.5	61	26.2	2	7	90	0.00	30.432 
13:50	38.5	38.5	38.5	60	25.8	2	6	90	0.00	30.432 
13:55	38.5	38.5	38.5	61	26.2	2	6	112	0.00	30.432 
14:00	38.6	38.6	38.6	62	26.7	2	4	90	0.00	30.405 
14:05	38.6	38.6	38.6	61	26.3	3	7	90	0.00	30.405 
14:10	38.6	38.6	38.6	61	26.3	2	5	112	0.00	30.405 
14:15	38.6	38.6	38.6	61	26.3	3	7	112	0.00	30.405 
14:20	38.8	38.8	38.8	61	26.5	2	6	112	0.00	30.405 
14:25	38.6	38.6	38.6	61	26.3	3	10	90	0.00	30.405 
14:30	38.6	38.6	38.6	61	26.3	2	6	90	0.00	30.406 
14:35	38.8	38.8	38.8	62	26.9	2	7	112	0.00	30.406 
14:40	38.8	38.8	38.8	60	26.1	2	9	112	0.00	30.406 
14:45	38.8	38.8	38.8	61	26.5	2	5	112	0.00	30.390 
14:50	39.1	39.1	39.1	61	26.8	2	6	90	0.00	30.390 
14:55	39.1	39.1	39.1	61	26.8	2	6	90	0.00	30.390 
15:00	39.1	39.1	39.1	61	26.8	2	10	90	0.00	30.378 
15:05	38.9	38.9	38.9	61	26.6	2	6	112	0.00	30.378 
15:10	38.9	38.9	38.9	61	26.6	2	9	90	0.00	30.378 
15:15	39.1	39.1	39.1	62	27.2	3	9	90	0.00	30.373 
15:20	39.1	39.1	39.1	61	26.8	2	6	90	0.00	30.373 
15:25	39.2	39.2	39.2	60	26.5	2	6	68	0.00	30.373 
15:30	39.2	39.2	39.2	60	26.5	3	6	112	0.00	30.374 
15:35	39.3	39.3	39.3	60	26.6	2	9	90	0.00	30.374 
15:40	39.3	39.3	39.3	60	26.6	2	6	90	0.00	30.374 
15:45	39.3	39.3	39.3	61	27.0	1	5	112	0.00	30.374 
15:50	39.5	39.5	39.5	60	26.8	2	7	90	0.00	30.374 
15:55	39.6	39.6	39.6	60	26.9	3	6	90	0.00	30.374 
16:00	39.6	39.6	39.6	60	26.9	2	6	112	0.00	30.367 
16:05	39.8	39.8	39.8	61	27.5	2	6	112	0.00	30.367 
16:10	39.9	39.9	39.9	61	27.6	3	9	112	0.00	30.367 
16:15	39.9	39.9	39.9	61	27.6	2	5	112	0.00	30.363 
16:20	39.9	39.9	39.9	61	27.6	2	5	112	0.00	30.363 
16:25	39.8	39.8	39.8	62	27.9	2	9	90	0.00	30.363 
16:30	39.8	39.8	39.8	61	27.5	2	4	90	0.00	30.355 
16:35	39.6	39.6	39.6	61	27.3	3	10	90	0.00	30.355 
16:40	39.5	39.5	39.5	61	27.2	2	6	112	0.00	30.355 
16:45	39.5	39.5	39.5	61	27.2	2	7	90	0.00	30.347 
16:50	39.3	39.3	39.3	62	27.4	2	6	90	0.00	30.347 
16:55	39.2	39.2	39.2	62	27.3	1	5	90	0.00	30.347 
17:00	39.1	39.1	39.1	62	27.2	2	10	90	0.00	30.344 
17:05	39.1	39.1	39.1	62	27.2	2	4	112	0.00	30.344 
17:10	38.9	38.9	38.9	63	27.4	1	4	135	0.00	30.344 
17:15	38.9	38.9	38.9	63	27.4	1	5	112	0.00	30.344 
17:20	38.8	38.8	38.8	63	27.3	2	7	112	0.00	30.344 
17:25	38.8	38.8	38.8	63	27.3	1	3	112	0.00	30.344 
17:30	38.6	38.6	38.6	63	27.1	2	7	90	0.00	30.331 
17:35	38.6	38.6	38.6	64	27.5	2	5	112	0.00	30.331 
17:40	38.5	38.5	38.5	64	27.4	1	3	112	0.00	30.331 
17:45	38.3	38.3	38.3	64	27.2	1	5	112	0.00	30.328 
17:50	38.3	38.3	38.3	65	27.6	1	4	112	0.00	30.328 
17:55	38.2	38.2	38.2	65	27.5	1	4	90	0.00	30.328 
18:00	38.0	38.0	38.0	65	27.3	1	4	135	0.00	30.315 
18:05	37.9	37.9	37.9	66	27.6	1	4	135	0.00	30.315 
18:10	37.8	37.8	37.8	67	27.8	1	3	135	0.00	30.315 
18:15	37.5	37.5	37.5	68	27.9	1	4	112	0.00	30.316 
18:20	37.3	37.3	37.3	67	27.4	1	3	112	0.00	30.316 
18:25	37.3	37.3	37.3	67	27.4	1	4	90	0.00	30.316 
18:30	37.3	37.3	37.3	66	27.0	2	5	90	0.00	30.314 
18:35	37.3	37.3	37.3	65	26.6	1	4	90	0.00	30.314 
18:40	37.2	37.2	37.2	66	26.9	1	3	90	0.00	30.314 
18:45	37.0	37.0	37.0	66	26.7	1	5	112	0.00	30.320 
18:50	36.9	36.9	36.9	67	27.0	2	6	112	0.00	30.320 
18:55	36.8	36.8	36.8	68	27.2	1	6	90	0.00	30.320 
19:00	36.6	36.6	36.6	68	27.1	2	7	112	0.00	30.315 
19:05	36.5	36.5	36.5	67	26.6	3	9	112	0.00	30.315 
19:10	36.5	36.5	36.5	67	26.6	3	8	112	0.00	30.315 
19:15	36.3	36.3	36.3	67	26.4	3	9	90	0.00	30.293 
19:20	36.2	36.2	36.2	67	26.3	3	12	112	0.00	30.293 
19:25	36.0	36.0	36.0	67	26.1	2	6	90	0.00	30.293 
19:30	35.9	35.9	35.9	67	26.0	2	7	90	0.00	30.293 
19:35	35.8	35.8	35.8	68	26.3	2	5	68	0.00	30.293 
19:40	35.6	35.6	35.6	68	26.1	2	7	90	0.00	30.293 
19:45	35.5	35.5	35.5	68	26.0	1	6	90	0.00	30.287 
19:50	35.3	35.3	35.3	68	25.8	1	4	90	0.00	30.287 
19:55	35.3	35.3	35.3	68	25.8	1	6	112	0.00	30.287 
20:00	35.2	35.2	35.2	68	25.7	1	6	112	0.00	30.290 
20:05	35.2	35.2	35.2	69	26.1	1	7	90	0.00	30.290 
20:10	35.2	35.2	35.2	69	26.1	2	4	68	0.00	30.290 
20:15	35.2	35.2	35.2	68	25.7	2	6	90	0.00	30.280 
20:20	35.2	35.2	35.2	68	25.7	1	4	112	0.00	30.280 
20:25	35.0	35.0	35.0	69	25.9	2	6	90	0.00	30.280 
20:30	35.0	35.0	35.0	69	25.9	2	6	90	0.00	30.266 
20:35	35.0	35.0	35.0	69	25.9	2	4	112	0.00	30.266 
20:40	35.0	35.0	35.0	69	25.9	2	5	112	0.00	30.266 
20:45	35.0	35.0	35.0	70	26.2	2	4	90	0.00	30.258 
20:50	35.0	35.0	35.0	70	26.2	2	5	90	0.00	30.258 
20:55	35.0	35.0	35.0	70	26.2	2	9	112	0.00	30.258 
21:00	35.2	35.2	35.2	70	26.4	3	9	90	0.00	30.248 
21:05	35.2	35.2	35.2	69	26.1	1	5	90	0.00	30.248 
21:10	35.2	35.2	35.2	69	26.1	2	7	90	0.00	30.248 
21:15	35.3	35.3	35.3	69	26.2	2	5	112	0.00	30.232 
21:20	35.3	35.3	35.3	69	26.2	2	5	90	0.00	30.232 
21:25	35.5	35.5	35.5	69	26.4	2	5	112	0.00	30.232 
21:30	35.5	35.5	35.5	68	26.0	2	9	112	0.00	30.231 
21:35	35.6	35.6	35.6	68	26.1	3	10	112	0.00	30.231 
21:40	35.6	35.6	35.6	68	26.1	2	6	68	0.00	30.231 
21:45	35.6	35.6	35.6	68	26.1	1	6	90	0.00	30.222 
21:50	35.6	35.6	35.6	67	25.7	1	5	90	0.00	30.222 
21:55	35.8	35.8	35.8	67	25.9	1	4	90	0.00	30.222 
22:00	35.8	35.8	35.8	67	25.9	3	14	90	0.00	30.211 
22:05	35.8	35.8	35.8	66	25.6	3	14	90	0.00	30.211 
22:10	35.9	35.9	35.9	66	25.7	2	7	90	0.00	30.211 
22:15	35.9	35.9	35.9	66	25.7	2	6	90	0.00	30.194 
22:20	35.9	35.9	35.9	66	25.7	2	5	112	0.00	30.194 
22:25	35.9	35.9	35.9	65	25.3	2	6	112	0.00	30.194 
22:30	36.0	36.0	36.0	64	25.0	3	10	112	0.00	30.187 
22:35	36.2	36.2	36.2	64	25.2	2	6	68	0.00	30.187 
22:40	36.2	36.2	36.2	64	25.2	3	5	90	0.00	30.187 
22:45	36.2	36.2	36.2	64	25.2	3	11	112	0.00	30.175 
22:50	36.3	36.3	36.3	64	25.3	3	7	90	0.00	30.175 
22:55	36.3	36.3	36.3	63	24.9	3	9	90	0.00	30.175 
23:00	36.3	36.3	36.3	64	25.3	2	6	90	0.00	30.174 
23:05	36.5	36.5	36.5	63	25.1	3	6	112	0.00	30.174 
23:10	36.5	36.5	36.5	63	25.1	2	6	90	0.00	30.174 
23:15	36.5	36.5	36.5	63	25.1	2	7	112	0.00	30.166 
23:20	36.5	36.5	36.5	64	25.5	2	5	112	0.00	30.166 
23:25	36.5	36.5	36.5	64	25.5	2	5	112	0.00	30.166 
23:30	36.5	36.5	36.5	64	25.5	2	6	112	0.00	30.157 
23:35	36.5	36.5	36.5	64	25.5	2	6	112	0.00	30.157 
23:40	36.5	36.5	36.5	64	25.5	2	7	112	0.00	30.157 
23:45	36.3	36.3	36.3	65	25.7	2	7	112	0.00	30.158 
23:50	36.3	36.3	36.3	65	25.7	2	4	90	0.00	30.158 
23:55	36.2	36.2	36.2	65	25.6	2	4	112	0.00	30.158 

CoCoRaHS
IN-AL-39
A2 Web Hosting
Creative Commons License
GoDaddy
search engine by freefind advanced

loaded 2018-11-12 15:18:43 • last modified 2010-11-18 10:43:29
Privacy PolicyDisclaimer
• wx.awcolley.com is powered by PmWiki v.2002016 •
• all content (unless otherwise noted) © 2018 A W Colley